Time;durP1;ratioP1;P1;durP2;ratioP2;P2;SDS_P1;SDS_P2;PMS_P1;PMS_P2;Temp;Humidity;BMP_temperature;BMP_pressure;BME280_temperature;BME280_humidity;BME280_pressure;Samples;Min_cycle;Max_cycle;Signal;HPM_P1;HPM_P2
2021/09/18 00:01:25;;;;;;;7.67;6.37;;;;;;;18.02;85.20;99275.01;1721340;81;21066;-54
2021/09/18 00:03:51;;;;;;;;;;;;;;;18.02;85.49;99281.20;1724922;81;21019;-57
2021/09/18 00:06:18;;;;;;;12.25;6.80;;;;;;;18.02;85.55;99279.05;1750509;80;20465;-55
2021/09/18 00:08:46;;;;;;;9.25;6.97;;;;;;;17.96;85.58;99276.06;1730442;80;21099;-54
2021/09/18 00:11:13;;;;;;;12.05;8.38;;;;;;;17.91;85.89;99274.14;1743184;80;21564;-54
2021/09/18 00:13:39;;;;;;;9.05;7.25;;;;;;;17.89;85.78;99277.64;1728448;81;21046;-54
2021/09/18 00:16:08;;;;;;;11.50;6.95;;;;;;;17.90;85.96;99265.80;1736533;81;20987;-54
2021/09/18 00:18:34;;;;;;;11.22;8.00;;;;;;;17.88;86.07;99276.84;1738292;80;21018;-55
2021/09/18 00:21:02;;;;;;;9.60;7.08;;;;;;;17.84;86.24;99266.83;1743135;80;22275;-55
2021/09/18 00:23:30;;;;;;;7.37;6.78;;;;;;;17.85;86.09;99266.56;1734523;79;21002;-54
2021/09/18 00:25:58;;;;;;;11.88;7.47;;;;;;;17.87;86.28;99270.36;1731637;81;21613;-55
2021/09/18 00:28:26;;;;;;;8.30;7.55;;;;;;;17.82;86.75;99264.90;1737895;81;22136;-54
2021/09/18 00:30:52;;;;;;;8.88;8.00;;;;;;;17.82;86.73;99257.65;1728745;81;21600;-54
2021/09/18 00:33:18;;;;;;;9.20;7.83;;;;;;;17.87;86.57;99262.27;1729315;79;21596;-53
2021/09/18 00:35:45;;;;;;;10.78;6.97;;;;;;;17.89;86.71;99254.72;1740070;81;21609;-55
2021/09/18 00:38:12;;;;;;;;;;;;;;;17.89;86.83;99257.42;1750736;81;21059;-55
2021/09/18 00:40:41;;;;;;;11.55;8.08;;;;;;;17.92;86.75;99253.41;1737638;81;20475;-54
2021/09/18 00:43:09;;;;;;;9.15;7.03;;;;;;;17.86;87.02;99256.08;1735200;81;21000;-54
2021/09/18 00:45:37;;;;;;;11.22;7.72;;;;;;;17.88;87.02;99248.53;1741412;81;21461;-54
2021/09/18 00:48:05;;;;;;;12.33;8.58;;;;;;;17.92;86.94;99251.52;1737185;81;21031;-55
2021/09/18 00:50:33;;;;;;;9.60;8.75;;;;;;;17.91;87.09;99249.88;1741407;81;21062;-54
2021/09/18 00:53:00;;;;;;;12.93;8.83;;;;;;;17.89;87.40;99246.64;1749847;81;21085;-56
2021/09/18 00:55:27;;;;;;;9.05;8.18;;;;;;;17.90;87.35;99242.88;1757274;81;21015;-53
2021/09/18 00:57:54;;;;;;;9.80;7.95;;;;;;;17.91;87.44;99245.84;1759711;81;21006;-55
2021/09/18 01:00:22;;;;;;;12.40;9.30;;;;;;;17.92;87.59;99240.73;1746129;81;21029;-55
2021/09/18 01:02:48;;;;;;;10.50;8.25;;;;;;;17.95;87.44;99240.73;1738380;81;21044;-54
2021/09/18 01:05:14;;;;;;;9.18;8.15;;;;;;;17.96;87.50;99238.33;1730609;81;21027;-54
2021/09/18 01:07:40;;;;;;;12.28;8.00;;;;;;;17.93;87.77;99232.91;1729991;81;21635;-55
2021/09/18 01:10:08;;;;;;;;;;;;;;;17.93;87.88;99231.55;1735953;81;21077;-54
2021/09/18 01:12:41;;;;;;;9.73;9.00;;;;;;;17.95;87.93;99224.55;1742900;81;20112;-54
2021/09/18 01:15:09;;;;;;;12.35;9.00;;;;;;;17.90;88.07;99218.63;1735386;81;21030;-52
2021/09/18 01:17:35;;;;;;;11.15;9.03;;;;;;;17.93;88.14;99219.42;1738071;81;21025;-53
2021/09/18 01:20:01;;;;;;;12.23;9.88;;;;;;;17.96;88.20;99208.67;1759275;81;21074;-54
2021/09/18 01:22:28;;;;;;;13.85;9.63;;;;;;;17.98;88.22;99208.66;1757089;81;21051;-55
2021/09/18 01:24:54;;;;;;;9.80;8.80;;;;;;;17.98;88.25;99202.47;1753736;81;21089;-54
2021/09/18 01:27:20;;;;;;;11.00;9.90;;;;;;;17.98;88.42;99201.13;1742351;81;21015;-54
2021/09/18 01:29:48;;;;;;;10.68;9.20;;;;;;;17.99;88.20;99200.86;1735981;81;21112;-54
2021/09/18 01:32:18;;;;;;;11.88;9.35;;;;;;;18.01;88.34;99201.41;1736740;81;21718;-54
2021/09/18 01:34:44;;;;;;;15.80;9.18;;;;;;;18.01;88.49;99200.61;1729954;81;21025;-54
2021/09/18 01:37:11;;;;;;;12.00;9.15;;;;;;;18.03;88.39;99201.15;1723516;81;21497;-54
2021/09/18 01:39:37;;;;;;;13.72;10.70;;;;;;;18.05;88.25;99201.14;1735561;81;21094;-54
2021/09/18 01:42:03;;;;;;;14.10;9.85;;;;;;;18.05;88.59;99198.99;1737725;81;20983;-55
2021/09/18 01:44:31;;;;;;;12.78;10.28;;;;;;;18.05;88.49;99194.41;1738947;81;21002;-54
2021/09/18 01:46:58;;;;;;;11.00;9.90;;;;;;;18.04;88.92;99194.66;1728407;81;21117;-54
2021/09/18 01:49:26;;;;;;;14.85;9.80;;;;;;;18.07;88.78;99186.86;1734172;81;20987;-54
2021/09/18 01:51:57;;;;;;;12.65;11.00;;;;;;;18.09;88.66;99190.64;1737873;81;21172;-54
2021/09/18 01:54:24;;;;;;;15.20;10.15;;;;;;;18.12;88.64;99185.24;1741547;81;21168;-53
2021/09/18 01:56:52;;;;;;;11.90;10.68;;;;;;;18.11;88.64;99187.14;1742026;81;21041;-54
2021/09/18 01:59:20;;;;;;;14.87;11.38;;;;;;;18.16;88.41;99181.77;1745627;81;21065;-55
2021/09/18 02:01:46;;;;;;;17.52;11.83;;;;;;;17.90;88.41;99133.16;1742425;81;21034;-53
2021/09/18 02:04:13;;;;;;;13.43;11.25;;;;;;;18.12;88.87;99169.06;1728167;81;21015;-53
2021/09/18 02:06:40;;;;;;;14.00;11.25;;;;;;;18.11;88.90;99170.95;1738246;81;21058;-53
2021/09/18 02:09:08;;;;;;;13.50;11.95;;;;;;;18.08;89.17;99166.09;1739784;81;21107;-53
2021/09/18 02:11:34;;;;;;;13.62;12.25;;;;;;;18.05;89.59;99161.24;1735559;81;21047;-54
2021/09/18 02:14:02;;;;;;;14.83;12.28;;;;;;;18.06;89.47;99157.45;1746683;81;20999;-54
2021/09/18 02:16:28;;;;;;;;;;;;;;;18.04;89.77;99164.45;1741142;80;21548;-54
2021/09/18 02:18:57;;;;;;;18.05;12.58;;;;;;;18.04;89.96;99159.06;1738172;80;20141;-54
2021/09/18 02:21:23;;;;;;;17.87;13.53;;;;;;;18.03;89.86;99158.81;1738082;81;21105;-54
2021/09/18 02:23:52;;;;;;;13.85;12.50;;;;;;;18.06;89.87;99154.77;1735093;81;21002;-55
2021/09/18 02:26:20;;;;;;;17.00;12.58;;;;;;;18.08;89.76;99160.69;1733271;81;21038;-55
2021/09/18 02:28:46;;;;;;;;;;;;;;;18.12;89.75;99157.77;1744983;81;21002;-55
2021/09/18 02:31:12;;;;;;;15.28;12.70;;;;;;;18.15;89.56;99154.52;1749874;81;20203;-54
2021/09/18 02:33:40;;;;;;;13.62;12.07;;;;;;;18.12;89.55;99150.19;1745512;81;21065;-56
2021/09/18 02:36:06;;;;;;;;;;;;;;;18.15;89.52;99145.08;1753516;81;21070;-55
2021/09/18 02:38:34;;;;;;;20.88;13.62;;;;;;;18.19;89.33;99142.66;1739131;80;20126;-57
2021/09/18 02:41:02;;;;;;;14.28;12.88;;;;;;;18.16;89.52;99149.41;1743018;81;21030;-55
2021/09/18 02:43:29;;;;;;;16.40;12.95;;;;;;;18.15;89.63;99142.92;1742602;81;20939;-55
2021/09/18 02:45:57;;;;;;;14.50;12.68;;;;;;;18.19;89.33;99139.95;1709654;81;21108;-54
2021/09/18 02:48:22;;;;;;;15.35;13.93;;;;;;;18.23;89.21;99137.82;1716731;82;21117;-55
2021/09/18 02:50:50;;;;;;;14.23;11.63;;;;;;;18.22;89.37;99147.52;1722648;82;21075;-54
2021/09/18 02:53:18;;;;;;;15.45;12.25;;;;;;;18.24;89.24;99142.67;1704334;82;21085;-56
2021/09/18 02:55:44;;;;;;;;;;;;;;;18.26;89.15;99152.65;1721076;82;21073;-54
2021/09/18 02:58:10;;;;;;;14.90;13.13;;;;;;;18.32;89.01;99150.22;1721018;82;20200;-55
2021/09/18 03:00:37;;;;;;;13.88;12.03;;;;;;;18.29;89.01;99148.08;1737353;81;21100;-55
2021/09/18 03:03:02;;;;;;;17.23;13.65;;;;;;;18.30;88.94;99149.68;1756119;80;21021;-55
2021/09/18 03:05:29;;;;;;;12.50;11.20;;;;;;;18.29;89.02;99146.19;1755720;80;21080;-54
2021/09/18 03:07:55;;;;;;;13.25;11.85;;;;;;;18.34;88.90;99145.91;1754090;80;21022;-55
2021/09/18 03:10:21;;;;;;;13.83;12.45;;;;;;;18.35;88.94;99144.84;1736222;80;21009;-55
2021/09/18 03:12:47;;;;;;;16.37;14.03;;;;;;;18.37;88.87;99142.14;1755787;80;21077;-55
2021/09/18 03:15:15;;;;;;;14.47;13.25;;;;;;;18.37;88.91;99139.98;1756318;80;21061;-55
2021/09/18 03:17:43;;;;;;;14.58;13.08;;;;;;;18.34;89.03;99136.47;1752262;80;21473;-55
2021/09/18 03:20:13;;;;;;;12.82;11.60;;;;;;;18.34;89.05;99139.97;1754770;81;21003;-55
2021/09/18 03:22:41;;;;;;;14.45;12.13;;;;;;;18.38;88.92;99136.20;1740051;80;20979;-55
2021/09/18 03:25:10;;;;;;;15.43;12.50;;;;;;;18.42;88.81;99139.97;1712236;82;21002;-55
2021/09/18 03:27:38;;;;;;;13.22;11.88;;;;;;;18.40;88.83;99134.03;1712264;82;21085;-55
2021/09/18 03:30:08;;;;;;;12.98;11.18;;;;;;;18.40;88.83;99128.12;1703841;82;21038;-55
2021/09/18 03:32:35;;;;;;;12.85;11.60;;;;;;;18.42;88.80;99129.17;1707343;82;21575;-55
2021/09/18 03:35:04;;;;;;;12.90;11.60;;;;;;;18.41;88.82;99128.38;1741535;81;21027;-57
2021/09/18 03:37:34;;;;;;;13.58;12.18;;;;;;;18.41;88.91;99124.33;1724978;81;21058;-66
2021/09/18 03:39:59;;;;;;;13.13;11.83;;;;;;;18.42;88.92;99117.04;1718983;81;21062;-55
2021/09/18 03:42:27;;;;;;;12.70;11.38;;;;;;;18.43;88.82;99118.13;1715919;81;21133;-55
2021/09/18 03:44:53;;;;;;;;;;;;;;;18.42;88.88;99108.42;1709311;81;21037;-51
2021/09/18 03:47:19;;;;;;;15.55;12.40;;;;;;;18.40;89.10;99111.94;1699008;82;20142;-51
2021/09/18 03:49:45;;;;;;;13.60;12.18;;;;;;;18.32;89.65;99109.76;1707464;82;21531;-50
2021/09/18 03:52:11;;;;;;;;;;;;;;;18.35;89.53;99111.93;1715479;82;21121;-51
2021/09/18 03:54:38;;;;;;;12.37;11.33;;;;;;;18.39;89.46;99106.80;1713505;81;20131;-54
2021/09/18 03:57:04;;;;;;;12.95;11.65;;;;;;;18.07;89.53;99064.72;1710005;81;21524;-55
2021/09/18 03:59:31;;;;;;;13.85;11.90;;;;;;;18.37;89.51;99111.11;1711992;82;21578;-55
2021/09/18 04:01:58;;;;;;;12.93;11.65;;;;;;;18.42;89.27;99114.34;1711609;82;21061;-55
2021/09/18 04:04:25;;;;;;;13.20;11.90;;;;;;;18.44;89.29;99117.58;1697571;82;21030;-55
2021/09/18 04:06:52;;;;;;;13.55;12.15;;;;;;;18.45;89.21;99106.52;1698225;82;21559;-54
2021/09/18 04:09:20;;;;;;;11.95;10.72;;;;;;;18.48;89.13;99100.59;1694553;82;21626;-54
2021/09/18 04:11:47;;;;;;;16.20;11.65;;;;;;;18.52;88.94;99100.06;1710943;82;21632;-55
2021/09/18 04:14:15;;;;;;;18.50;12.53;;;;;;;18.54;88.89;99097.90;1726268;81;21097;-54
2021/09/18 04:16:43;;;;;;;14.18;11.08;;;;;;;18.56;88.62;99097.89;1720667;81;21029;-53
2021/09/18 04:19:10;;;;;;;13.90;11.12;;;;;;;18.61;88.55;99093.02;1728075;81;21050;-55
2021/09/18 04:21:37;;;;;;;14.35;12.50;;;;;;;18.63;88.46;99094.93;1712999;81;21041;-55
2021/09/18 04:24:05;;;;;;;12.90;11.75;;;;;;;18.64;88.36;99099.23;1708082;82;21116;-54
2021/09/18 04:26:33;;;;;;;14.73;12.28;;;;;;;18.65;88.27;99105.70;1699369;82;21600;-54
2021/09/18 04:29:03;;;;;;;12.58;11.50;;;;;;;18.66;88.40;99099.77;1694248;82;21062;-54
2021/09/18 04:31:31;;;;;;;11.93;10.93;;;;;;;18.72;88.36;99097.31;1713892;82;21092;-54
2021/09/18 04:33:57;;;;;;;13.13;11.73;;;;;;;18.79;88.00;99095.15;1717233;82;21002;-55
2021/09/18 04:36:24;;;;;;;14.73;10.98;;;;;;;18.85;87.63;99090.58;1728884;81;21105;-56
2021/09/18 04:38:51;;;;;;;12.43;11.35;;;;;;;18.88;87.43;99087.90;1745962;81;21081;-54
2021/09/18 04:41:18;;;;;;;12.40;11.20;;;;;;;18.84;87.57;99091.68;1744123;81;21018;-56
2021/09/18 04:43:45;;;;;;;12.07;10.93;;;;;;;18.80;87.59;99094.11;1727561;81;21042;-54
2021/09/18 04:46:10;;;;;;;15.08;11.33;;;;;;;18.78;87.57;99096.25;1718007;82;21071;-56
2021/09/18 04:48:37;;;;;;;11.70;10.38;;;;;;;18.80;87.64;99091.94;1718069;81;21061;-54
2021/09/18 04:51:03;;;;;;;12.88;11.48;;;;;;;18.82;87.65;99089.25;1722190;81;21063;-54
2021/09/18 04:53:30;;;;;;;12.45;11.35;;;;;;;18.81;87.80;99093.56;1716718;81;21556;-56
2021/09/18 04:55:58;;;;;;;13.75;12.37;;;;;;;18.82;87.64;99088.45;1720237;81;21512;-56
2021/09/18 04:58:25;;;;;;;13.45;11.28;;;;;;;18.83;87.55;99086.80;1720733;81;21104;-53
2021/09/18 05:00:51;;;;;;;12.40;11.20;;;;;;;18.85;87.63;99094.63;1721880;79;21141;-53
2021/09/18 05:03:17;;;;;;;;;;;;;;;18.89;87.59;99086.80;1727542;81;21063;-55
2021/09/18 05:05:44;;;;;;;18.12;12.33;;;;;;;18.89;87.43;99093.00;1732815;82;20740;-55
2021/09/18 05:08:11;;;;;;;15.70;11.18;;;;;;;18.87;87.49;99087.06;1733181;82;21517;-54
2021/09/18 05:10:38;;;;;;;12.63;11.18;;;;;;;18.91;87.37;99083.28;1732358;81;21015;-55
2021/09/18 05:13:06;;;;;;;13.22;12.13;;;;;;;18.91;87.34;99083.28;1714892;82;21004;-55
2021/09/18 05:15:32;;;;;;;16.55;11.83;;;;;;;18.97;87.09;99081.66;1707061;82;21086;-56
2021/09/18 05:18:02;;;;;;;12.30;11.22;;;;;;;19.01;86.74;99080.02;1708185;82;21101;-54
2021/09/18 05:20:29;;;;;;;14.90;12.47;;;;;;;19.05;86.47;99072.98;1705265;83;21524;-55
2021/09/18 05:22:55;;;;;;;;;;;;;;;19.08;86.18;99081.09;1721355;82;21126;-55
2021/09/18 05:25:22;;;;;;;13.62;12.15;;;;;;;19.07;86.10;99084.86;1741284;81;20158;-53
2021/09/18 05:27:50;;;;;;;12.68;11.38;;;;;;;19.02;86.27;99082.17;1734688;82;21043;-54
2021/09/18 05:30:16;;;;;;;;;;;;;;;19.02;86.14;99078.95;1736992;81;21543;-54
2021/09/18 05:32:43;;;;;;;16.52;12.95;;;;;;;19.03;86.14;99079.20;1741519;81;20138;-55
2021/09/18 05:35:10;;;;;;;17.05;12.58;;;;;;;19.02;86.25;99072.72;1729951;81;21206;-55
2021/09/18 05:37:36;;;;;;;14.73;13.22;;;;;;;19.04;86.19;99078.65;1727930;81;21030;-55
2021/09/18 05:40:05;;;;;;;15.40;12.23;;;;;;;19.06;85.90;99074.61;1721886;82;21023;-60
2021/09/18 05:42:31;;;;;;;14.60;13.30;;;;;;;19.06;85.75;99081.88;1737829;81;21623;-58
2021/09/18 05:44:59;;;;;;;14.07;12.58;;;;;;;19.05;85.78;99074.88;1689927;83;21029;-59
2021/09/18 05:47:25;;;;;;;;;;;;;;;19.06;85.64;99068.38;1696650;83;21588;-59
2021/09/18 05:49:51;;;;;;;17.98;13.58;;;;;;;19.08;85.39;99074.34;1685302;84;20150;-59
2021/09/18 05:52:18;;;;;;;14.85;13.40;;;;;;;19.03;85.41;99060.84;1685237;84;21517;-57
2021/09/18 05:54:46;;;;;;;15.32;13.60;;;;;;;19.04;85.56;99061.09;1687109;84;21125;-57
2021/09/18 05:57:13;;;;;;;16.35;13.28;;;;;;;19.08;85.27;99067.59;1680999;84;21037;-57
2021/09/18 05:59:40;;;;;;;15.15;13.62;;;;;;;19.07;85.36;99072.71;1667954;83;21065;-56
2021/09/18 06:02:07;;;;;;;14.63;13.15;;;;;;;19.10;85.22;99076.74;1668718;84;20982;-56
2021/09/18 06:04:34;;;;;;;13.93;12.45;;;;;;;19.13;85.04;99070.25;1669276;84;21042;-58
2021/09/18 06:07:00;;;;;;;;;;;;;;;19.11;84.76;99075.12;1681328;84;21102;-55
2021/09/18 06:09:26;;;;;;;14.35;12.63;;;;;;;19.12;84.74;99070.52;1685705;83;20523;-56
2021/09/18 06:11:52;;;;;;;;;;;;;;;19.11;84.66;99075.12;1674047;84;22110;-55
2021/09/18 06:14:18;;;;;;;15.65;12.75;;;;;;;19.09;84.09;99085.39;1682242;83;20204;-56
2021/09/18 06:16:44;;;;;;;16.48;13.55;;;;;;;19.03;84.46;99083.80;1691689;83;21077;-56
2021/09/18 06:19:11;;;;;;;15.98;13.32;;;;;;;19.05;84.66;99077.03;1737978;81;21616;-55
2021/09/18 06:21:39;;;;;;;16.00;14.47;;;;;;;19.05;84.50;99074.88;1740620;81;21073;-57
2021/09/18 06:24:10;;;;;;;14.13;12.65;;;;;;;19.07;84.16;99080.81;1750598;81;21007;-55
2021/09/18 06:26:34;;;;;;;15.55;13.28;;;;;;;19.11;83.87;99077.02;1749695;81;21583;-53
2021/09/18 06:29:00;;;;;;;18.25;13.30;;;;;;;19.14;83.65;99081.89;1748837;81;21022;-56
2021/09/18 06:31:26;;;;;;;14.35;13.00;;;;;;;19.14;83.32;99077.28;1744168;81;21754;-54
2021/09/18 06:33:52;;;;;;;17.48;12.95;;;;;;;19.14;83.16;99081.33;1737781;80;21572;-55
2021/09/18 06:38:10;;;;;;;19.92;13.30;;;;;;;19.22;83.13;99081.30;1792889;79;23400;-54
2021/09/18 06:40:37;;;;;;;14.83;13.30;;;;;;;19.09;83.03;99092.15;1757741;80;21061;-57
2021/09/18 06:43:05;;;;;;;14.15;12.28;;;;;;;19.13;83.00;99088.36;1760422;80;21054;-55
2021/09/18 06:45:31;;;;;;;15.30;12.47;;;;;;;19.14;82.99;99078.63;1717330;80;21172;-56
2021/09/18 06:47:57;;;;;;;;;;;;;;;19.16;82.81;99072.41;1673714;84;21246;-55
2021/09/18 06:50:24;;;;;;;13.28;12.15;;;;;;;18.35;82.27;98939.84;1696053;83;20138;-54
2021/09/18 06:52:50;;;;;;;19.45;12.95;;;;;;;19.20;82.32;99081.58;1688865;83;21101;-54
2021/09/18 06:55:17;;;;;;;13.45;12.05;;;;;;;19.19;82.11;99077.80;1683570;82;21041;-56
2021/09/18 06:57:43;;;;;;;;;;;;;;;19.22;81.96;99076.70;1683296;83;21254;-56
2021/09/18 07:00:11;;;;;;;15.80;12.82;;;;;;;19.26;81.80;99083.16;1678843;84;20148;-56
2021/09/18 07:02:37;;;;;;;16.35;12.55;;;;;;;19.24;81.63;99083.98;1686522;84;21049;-56
2021/09/18 07:05:07;;;;;;;13.95;12.53;;;;;;;19.21;81.47;99063.47;1654682;85;21135;-55
2021/09/18 07:07:33;;;;;;;13.58;11.75;;;;;;;19.23;81.14;99075.63;1654044;85;21049;-56
2021/09/18 07:10:00;;;;;;;;;;;;;;;19.26;81.01;99075.06;1685814;83;22243;-56
2021/09/18 07:12:26;;;;;;;13.47;12.17;;;;;;;19.30;80.60;99077.22;1675883;83;20146;-55
2021/09/18 07:14:53;;;;;;;17.15;12.55;;;;;;;19.29;80.16;99078.29;1694844;83;21069;-57
2021/09/18 07:17:19;;;;;;;15.85;13.80;;;;;;;19.34;79.89;99067.47;1683597;83;21064;-56
2021/09/18 07:19:45;;;;;;;;;;;;;;;19.11;79.88;99016.26;1687204;83;21072;-56
2021/09/18 07:22:11;;;;;;;15.32;12.47;;;;;;;19.54;79.33;99056.56;1688736;83;20489;-55
2021/09/18 07:24:38;;;;;;;;;;;;;;;19.58;78.70;99066.28;1683382;84;21033;-56
2021/09/18 07:27:04;;;;;;;14.70;11.12;;;;;;;19.65;77.79;99066.78;1685819;83;20207;-56
2021/09/18 07:29:31;;;;;;;13.15;11.63;;;;;;;19.70;77.47;99064.58;1679284;83;21158;-56
2021/09/18 07:31:58;;;;;;;16.02;12.03;;;;;;;19.75;77.45;99064.03;1655406;85;21025;-55
2021/09/18 07:34:24;;;;;;;10.95;9.90;;;;;;;19.87;77.34;99062.88;1661267;83;21140;-56
2021/09/18 07:36:51;;;;;;;12.43;11.12;;;;;;;19.94;76.22;99060.12;1649174;85;21113;-57
2021/09/18 07:39:18;;;;;;;16.12;10.43;;;;;;;19.99;75.88;99047.92;1649519;85;21053;-57
2021/09/18 07:41:45;;;;;;;11.55;10.45;;;;;;;19.97;75.99;99053.36;1643132;85;21054;-57
2021/09/18 07:44:11;;;;;;;12.85;10.48;;;;;;;19.95;75.57;99063.66;1649938;84;21014;-56
2021/09/18 07:46:39;;;;;;;11.38;9.95;;;;;;;19.97;75.52;99052.02;1650773;85;21133;-57
2021/09/18 07:49:05;;;;;;;;;;;;;;;19.97;75.60;99063.63;1654820;85;21109;-56
2021/09/18 07:51:31;;;;;;;12.53;9.97;;;;;;;19.93;75.20;99065.80;1647585;85;20183;-55
2021/09/18 07:53:58;;;;;;;10.68;9.58;;;;;;;19.86;75.43;99059.93;1648164;85;21184;-57
2021/09/18 07:56:24;;;;;;;10.18;9.05;;;;;;;19.84;75.52;99066.97;1663230;84;21066;-56
2021/09/18 07:58:50;;;;;;;;;;;;;;;19.85;75.31;99068.56;1674389;84;21006;-55
2021/09/18 08:01:18;;;;;;;11.12;10.05;;;;;;;19.86;75.46;99070.20;1673634;84;20214;-56
2021/09/18 08:03:44;;;;;;;9.78;8.85;;;;;;;19.81;75.47;99066.16;1657894;84;21077;-55
2021/09/18 08:06:10;;;;;;;;;;;;;;;19.82;75.58;99068.59;1666256;84;21124;-56
2021/09/18 08:08:36;;;;;;;10.55;8.45;;;;;;;19.84;75.47;99069.12;1668804;84;20151;-56
2021/09/18 08:11:05;;;;;;;10.53;9.43;;;;;;;19.82;75.25;99075.91;1659996;84;21555;-56
2021/09/18 08:13:31;;;;;;;10.80;9.35;;;;;;;19.78;75.45;99072.95;1673849;84;21125;-56
2021/09/18 08:15:57;;;;;;;11.70;9.18;;;;;;;19.80;75.44;99068.62;1688804;84;21098;-55
2021/09/18 08:18:23;;;;;;;8.60;7.72;;;;;;;19.77;75.12;99075.38;1674709;84;21069;-56
2021/09/18 08:20:51;;;;;;;8.55;7.28;;;;;;;19.79;74.99;99070.49;1675549;84;21074;-55
2021/09/18 08:23:17;;;;;;;;;;;;;;;19.82;74.23;99075.91;1642383;84;21065;-55
2021/09/18 08:25:43;;;;;;;7.67;6.72;;;;;;;19.86;73.75;99072.90;1646769;85;20182;-55
2021/09/18 08:28:10;;;;;;;10.72;6.17;;;;;;;19.88;73.33;99077.48;1635232;85;21496;-56
2021/09/18 08:30:36;;;;;;;;;;;;;;;20.01;73.17;99084.16;1649484;85;21109;-56
2021/09/18 08:33:04;;;;;;;8.13;4.50;;;;;;;20.20;72.12;99077.52;1632315;85;20548;-54
2021/09/18 08:35:31;;;;;;;6.97;5.22;;;;;;;20.34;71.28;99075.80;1647279;85;21089;-57
2021/09/18 08:37:57;;;;;;;;;;;;;;;20.51;70.68;99082.14;1639546;86;21588;-56
2021/09/18 08:40:26;;;;;;;3.47;3.17;;;;;;;20.62;67.72;99080.16;1629221;86;20172;-55
2021/09/18 08:42:54;;;;;;;2.50;2.17;;;;;;;20.57;66.27;99082.35;1633628;86;21064;-54
2021/09/18 08:45:22;;;;;;;2.65;2.55;;;;;;;20.56;65.76;99086.69;1634445;86;21055;-55
2021/09/18 08:47:50;;;;;;;2.35;1.70;;;;;;;20.59;66.16;99088.28;1632091;86;21548;-56
2021/09/18 08:50:20;;;;;;;1.80;1.70;;;;;;;20.66;65.54;99078.48;1634660;86;21218;-56
2021/09/18 08:52:48;;;;;;;0.95;0.95;;;;;;;20.83;65.06;99086.73;1632419;86;21301;-56
2021/09/18 08:55:16;;;;;;;1.35;1.22;;;;;;;20.92;64.70;99090.43;1628740;86;21123;-56
2021/09/18 08:57:44;;;;;;;1.20;1.20;;;;;;;21.02;64.81;99089.50;1634003;86;21058;-57
2021/09/18 09:00:35;;;;;;;1.52;1.37;;;;;;;21.03;63.75;99091.13;1634534;86;21141;-56
2021/09/18 09:03:07;;;;;;;2.62;1.37;;;;;;;21.01;64.01;99099.54;1634255;86;21111;-56
2021/09/18 09:05:39;;;;;;;1.07;1.07;;;;;;;21.01;64.61;99094.13;1634405;86;21102;-56
2021/09/18 09:08:13;;;;;;;2.50;1.07;;;;;;;21.01;63.89;99088.70;1630955;86;21102;-56
2021/09/18 09:10:44;;;;;;;0.93;0.93;;;;;;;20.95;63.73;99095.28;1628930;86;21086;-57
2021/09/18 09:13:21;;;;;;;1.32;0.78;;;;;;;20.84;63.97;99090.51;1632227;86;21095;-55
2021/09/18 09:15:52;;;;;;;1.12;1.12;;;;;;;20.74;64.20;99092.78;1638958;86;21056;-57
2021/09/18 09:18:27;;;;;;;0.95;0.90;;;;;;;20.68;64.64;99093.10;1622346;85;21576;-56
2021/09/18 09:21:20;;;;;;;1.45;1.35;;;;;;;20.60;65.00;99098.03;1666085;85;21145;-57
2021/09/18 09:24:03;;;;;;;2.52;0.95;;;;;;;20.47;65.03;99099.22;1663137;84;21075;-57
2021/09/18 09:26:31;;;;;;;0.72;0.72;;;;;;;20.28;65.80;99089.08;1650189;84;21163;-56
2021/09/18 09:28:57;;;;;;;0.72;0.65;;;;;;;20.14;66.15;99100.30;1636866;84;24495;-56
2021/09/18 09:31:28;;;;;;;0.78;0.53;;;;;;;20.07;66.77;99106.56;1630200;85;21562;-56
2021/09/18 09:34:14;;;;;;;0.80;0.80;;;;;;;20.01;67.35;99108.50;1663435;84;21079;-56
2021/09/18 09:36:52;;;;;;;2.92;0.70;;;;;;;19.88;67.99;99103.72;1665692;84;21137;-54
2021/09/18 09:39:22;;;;;;;6.03;0.93;;;;;;;19.65;69.97;99112.19;1661292;84;21040;-56
2021/09/18 09:41:55;;;;;;;0.47;0.37;;;;;;;19.37;71.63;99108.80;1670362;84;21438;-57
2021/09/18 09:44:28;;;;;;;4.83;0.60;;;;;;;19.35;72.99;99123.14;1662844;83;21411;-56
2021/09/18 09:47:11;;;;;;;1.67;0.47;;;;;;;19.23;74.56;99136.93;1655297;85;21045;-56
2021/09/18 09:49:52;;;;;;;1.10;0.98;;;;;;;19.12;74.81;99136.69;1656944;85;21104;-56
2021/09/18 09:52:29;;;;;;;4.55;0.57;;;;;;;18.98;75.92;99145.91;1655695;85;21196;-56
2021/09/18 09:55:10;;;;;;;;;;;;;;;18.87;76.13;99153.20;1657111;85;21569;-57
2021/09/18 09:57:39;;;;;;;0.65;0.65;;;;;;;18.82;76.14;99158.64;1662519;85;20164;-56
2021/09/18 10:00:12;;;;;;;1.40;0.30;;;;;;;18.75;76.07;99157.52;1661659;85;21554;-54
2021/09/18 10:02:41;;;;;;;1.45;0.40;;;;;;;18.72;75.69;99163.99;1632034;86;21091;-56
2021/09/18 10:05:12;;;;;;;0.40;0.30;;;;;;;18.63;75.52;99167.80;1619069;87;21053;-56
2021/09/18 10:07:40;;;;;;;1.95;0.60;;;;;;;18.54;75.54;99169.41;1621892;86;21011;-57
2021/09/18 10:10:12;;;;;;;2.05;0.40;;;;;;;18.38;75.16;99169.91;1627279;86;21094;-56
2021/09/18 10:12:40;;;;;;;1.22;0.40;;;;;;;18.19;75.44;99161.53;1617659;87;21027;-57
2021/09/18 10:15:10;;;;;;;1.70;0.30;;;;;;;18.23;75.60;99168.00;1620576;87;21126;-56
2021/09/18 10:17:42;;;;;;;1.85;0.30;;;;;;;18.29;75.80;99165.61;1619471;88;21107;-57
2021/09/18 10:20:13;;;;;;;2.33;0.53;;;;;;;18.38;75.62;99175.31;1616475;87;21378;-55
2021/09/18 10:25:36;;;;;;;0.55;0.30;;;;;;;18.56;75.22;99166.70;1652551;85;21107;-56
2021/09/18 10:28:09;;;;;;;2.58;0.40;;;;;;;18.70;74.58;99166.95;1630623;86;21639;-55
2021/09/18 10:30:51;;;;;;;0.60;0.30;;;;;;;18.89;73.71;99161.05;1637425;86;21105;-55
2021/09/18 10:33:44;;;;;;;0.95;0.30;;;;;;;19.10;72.79;99153.19;1641714;85;21212;-56
2021/09/18 10:36:24;;;;;;;0.57;0.40;;;;;;;19.27;71.92;99158.28;1661875;84;21307;-56
2021/09/18 10:39:12;;;;;;;4.62;0.40;;;;;;;19.38;70.88;99165.28;1667968;84;21180;-55
2021/09/18 10:41:59;;;;;;;2.58;0.40;;;;;;;19.42;70.19;99164.16;1638603;85;21560;-55
2021/09/18 10:44:51;;;;;;;3.70;0.30;;;;;;;19.42;69.92;99162.28;1634220;85;21080;-55
2021/09/18 10:47:48;;;;;;;0.50;0.40;;;;;;;19.44;68.82;99167.42;1608413;89;21057;-56
2021/09/18 10:50:25;;;;;;;2.90;0.20;;;;;;;19.39;68.58;99170.13;1609666;87;21186;-54
2021/09/18 10:53:11;;;;;;;3.33;0.50;;;;;;;19.21;68.75;99171.52;1608113;87;21616;-56
2021/09/18 10:56:03;;;;;;;2.65;0.47;;;;;;;19.07;69.13;99173.98;1609815;87;21080;-55
2021/09/18 10:58:31;;;;;;;0.30;0.25;;;;;;;19.00;69.49;99178.84;1603590;87;21667;-55
2021/09/18 11:01:01;;;;;;;0.60;0.30;;;;;;;18.97;69.00;99184.81;1605010;87;21046;-56
2021/09/18 11:03:41;;;;;;;0.50;0.45;;;;;;;18.96;69.02;99179.13;1596597;87;21618;-55
2021/09/18 11:06:09;;;;;;;1.02;0.30;;;;;;;18.91;69.25;99180.47;1614726;87;21054;-56
2021/09/18 11:08:38;;;;;;;2.00;0.10;;;;;;;18.85;69.09;99181.02;1573617;87;21038;-56
2021/09/18 11:11:10;;;;;;;1.40;0.10;;;;;;;18.77;68.94;99190.45;1612705;87;21105;-56
2021/09/18 11:13:45;;;;;;;1.52;0.50;;;;;;;18.69;68.97;99190.99;1626294;87;21185;-57
2021/09/18 11:16:25;;;;;;;3.72;0.30;;;;;;;18.62;69.10;99199.89;1616684;87;21066;-57
2021/09/18 11:19:02;;;;;;;0.80;0.20;;;;;;;18.60;69.21;99198.00;1624141;87;21091;-56
2021/09/18 11:21:40;;;;;;;1.65;0.10;;;;;;;18.52;68.94;99210.69;1617166;87;21035;-57
2021/09/18 11:24:21;;;;;;;0.78;0.20;;;;;;;18.30;69.06;99207.67;1613839;87;21077;-61
2021/09/18 11:26:57;;;;;;;0.30;0.17;;;;;;;18.11;69.71;99204.66;1616118;86;21090;-57
2021/09/18 11:29:33;;;;;;;2.92;0.20;;;;;;;18.01;69.22;99200.06;1608753;87;21079;-56
2021/09/18 11:32:11;;;;;;;0.20;0.10;;;;;;;17.98;69.17;99201.13;1606323;87;21181;-57
2021/09/18 11:34:48;;;;;;;0.60;0.10;;;;;;;17.93;68.63;99214.58;1611511;87;21080;-58
2021/09/18 11:37:33;;;;;;;0.60;0.20;;;;;;;17.84;68.87;99217.79;1624237;86;22053;-56
2021/09/18 11:40:09;;;;;;;0.37;0.20;;;;;;;17.80;68.75;99218.53;1601299;88;21115;-57
2021/09/18 11:42:41;;;;;;;0.80;0.30;;;;;;;17.76;67.84;99221.48;1607078;87;21176;-56
2021/09/18 11:45:14;;;;;;;0.13;0.13;;;;;;;17.65;67.38;99224.14;1621544;86;21682;-56